createdAt,value
2017-07-05T08:42:03.912Z,32.7
2017-07-05T08:43:03.542Z,32.58
2017-07-05T08:44:03.898Z,32.75
2017-07-05T08:45:03.562Z,32.83
2017-07-05T08:46:03.922Z,32.93
2017-07-05T08:47:03.903Z,32.96
2017-07-05T08:48:03.917Z,33.01
2017-07-05T08:49:03.916Z,33.07
2017-07-05T08:50:03.602Z,33.17
2017-07-05T08:51:03.934Z,33.24
2017-07-05T08:52:04.261Z,33.39
2017-07-05T08:53:03.630Z,33.14
2017-07-05T08:54:04.282Z,32.92
2017-07-05T08:55:03.978Z,32.8
2017-07-05T08:56:04.299Z,32.58
2017-07-05T08:57:08.399Z,32.75
2017-07-05T08:58:04.001Z,32.56
2017-07-05T08:59:04.012Z,32.48
2017-07-05T09:00:04.022Z,32.14
2017-07-05T09:01:04.032Z,31.78
2017-07-05T09:02:04.371Z,31.29
2017-07-05T09:03:04.373Z,30.87
2017-07-05T09:04:04.395Z,30.57
2017-07-05T09:05:04.440Z,30.46
2017-07-05T09:06:04.409Z,30.3
2017-07-05T09:07:04.413Z,29.94
2017-07-05T09:08:04.433Z,29.84
2017-07-05T09:09:04.113Z,29.47
2017-07-05T09:10:04.123Z,29.27
2017-07-05T09:11:03.813Z,29.14
2017-07-05T09:12:04.568Z,29.01
2017-07-05T09:13:04.157Z,28.82
2017-07-05T09:14:04.163Z,28.82
2017-07-05T09:15:04.179Z,28.82
2017-07-05T09:16:04.501Z,28.98
2017-07-05T09:17:03.871Z,29.01
2017-07-05T09:18:04.202Z,29.05
2017-07-05T09:19:04.529Z,29.13
2017-07-05T09:20:04.217Z,29.22
2017-07-05T09:21:03.908Z,29.12
2017-07-05T09:22:04.242Z,29.08
2017-07-05T09:23:04.558Z,29.01
2017-07-05T09:24:03.929Z,28.89
2017-07-05T09:25:04.587Z,28.89
2017-07-05T15:50:16.567Z,31.46
2017-07-05T15:51:14.910Z,31.54
2017-07-05T15:52:14.784Z,31.49
2017-07-05T15:53:14.934Z,31.46
2017-07-05T15:54:14.614Z,31.51
2017-07-05T15:55:16.152Z,31.47
2017-07-05T15:56:14.618Z,31.47
2017-07-05T15:57:14.307Z,31.47
2017-07-05T15:58:14.970Z,31.47
2017-07-05T15:59:14.976Z,31.54
2017-07-05T16:00:15.812Z,31.55
2017-07-05T16:01:14.668Z,31.42
2017-07-05T16:02:14.663Z,31.49
2017-07-05T16:03:14.998Z,31.49
2017-07-05T16:04:14.683Z,31.47
2017-07-05T16:05:17.181Z,31.46
2017-07-05T16:06:15.011Z,31.56
2017-07-05T16:07:14.380Z,31.64
2017-07-05T16:08:14.720Z,31.65
2017-07-05T16:09:15.032Z,31.7
2017-07-05T16:10:15.920Z,31.81
2017-07-05T16:11:14.727Z,31.76
2017-07-05T16:12:15.058Z,31.87
2017-07-05T16:13:14.740Z,31.94
2017-07-05T16:14:15.079Z,31.85
2017-07-05T16:15:15.985Z,31.85
2017-07-05T16:16:14.762Z,31.84
2017-07-05T16:17:14.764Z,31.78
2017-07-05T16:18:15.101Z,31.7
2017-07-05T16:19:14.781Z,31.55
2017-07-05T16:20:16.424Z,31.46
2017-07-05T16:21:15.129Z,31.31
2017-07-05T16:22:15.122Z,31.22
2017-07-05T16:23:14.508Z,31.06
2017-07-05T16:24:14.503Z,31.05
2017-07-05T16:25:16.353Z,31.14
2017-07-05T16:26:14.518Z,31.1
2017-07-05T16:27:14.541Z,31.07
2017-07-05T16:28:15.171Z,31.06
2017-07-05T16:29:15.181Z,31.05
2017-07-05T16:30:16.115Z,31.05
2017-07-05T16:31:14.873Z,31.09
2017-07-05T16:32:15.197Z,31.14
2017-07-05T16:33:15.210Z,31.15
2017-07-05T16:34:14.903Z,31.15
2017-07-05T16:35:15.544Z,31.06
2017-07-05T16:36:14.599Z,31.09
2017-07-05T16:37:15.250Z,31.17
2017-07-05T16:38:15.313Z,31.22
2017-07-05T16:39:14.621Z,31.2
2017-07-05T16:40:16.214Z,31.09
2017-07-05T16:41:15.265Z,31.09
2017-07-05T16:42:15.272Z,31.07
2017-07-05T16:43:15.287Z,31.07
2017-07-05T16:44:15.303Z,31.17
2017-07-05T16:45:16.047Z,31.25
2017-07-05T16:46:15.312Z,31.14
2017-07-05T16:47:15.310Z,31.22
2017-07-05T16:48:15.023Z,31.14
2017-07-05T16:49:15.032Z,31.09
2017-07-05T16:50:15.251Z,31.07
2017-07-05T16:51:15.118Z,31.12
2017-07-05T16:52:15.071Z,31.17
2017-07-05T16:53:15.046Z,31.09
2017-07-05T16:54:15.388Z,31.02
2017-07-05T16:55:16.309Z,30.96
2017-07-05T16:56:15.092Z,30.9
2017-07-05T16:57:15.071Z,30.94
2017-07-05T16:58:15.388Z,30.92
2017-07-05T16:59:15.402Z,30.97
2017-07-05T17:00:15.759Z,30.94
2017-07-05T17:01:15.094Z,31.05
2017-07-05T17:02:15.117Z,31.06
2017-07-05T17:03:15.433Z,31.02
2017-07-05T17:04:15.489Z,31.02
2017-07-05T17:05:15.704Z,31
2017-07-05T17:06:15.700Z,31.06
2017-07-05T17:07:15.459Z,31.03
2017-07-05T17:08:15.467Z,30.92
2017-07-05T17:09:15.158Z,30.87
2017-07-05T17:10:15.979Z,30.87
2017-07-05T17:11:15.207Z,30.81
2017-07-05T17:12:15.180Z,30.73
2017-07-05T17:13:15.183Z,30.81
2017-07-05T17:14:15.195Z,30.7
2017-07-05T17:15:15.606Z,30.77
2017-07-05T17:16:15.208Z,30.84
2017-07-05T17:17:14.887Z,30.87
2017-07-05T17:18:15.220Z,30.75
2017-07-05T17:19:15.235Z,30.77
2017-07-05T17:20:15.668Z,30.78
2017-07-05T17:21:18.599Z,30.68
2017-07-05T17:22:15.257Z,30.62
2017-07-05T17:23:15.271Z,30.59
2017-07-05T17:24:15.581Z,30.62
2017-07-05T17:25:15.624Z,30.59
2017-07-05T17:26:15.601Z,30.61
2017-07-05T17:27:15.309Z,30.65
2017-07-05T17:28:15.289Z,30.62
2017-07-05T17:29:15.296Z,30.62
2017-07-05T17:30:16.206Z,30.57
2017-07-05T17:31:15.314Z,30.55
2017-07-05T17:32:15.651Z,30.62
2017-07-05T17:33:15.488Z,30.57
2017-07-05T17:34:15.336Z,30.54
2017-07-05T17:35:16.104Z,30.61
2017-07-05T17:36:15.152Z,30.5
2017-07-05T17:37:15.367Z,30.53
2017-07-05T17:38:15.382Z,30.47
2017-07-05T17:45:02.679Z,30.32
2017-07-05T17:45:49.637Z,30.34
2017-07-05T17:46:49.545Z,30.35
2017-07-05T17:47:50.359Z,30.23
2017-07-05T17:48:49.754Z,30.35
2017-07-05T17:49:50.297Z,30.27
2017-07-05T17:50:51.449Z,30.3
2017-07-05T17:51:49.098Z,30.28
2017-07-05T17:52:48.763Z,30.3
2017-07-05T17:53:50.724Z,30.35
2017-07-05T17:54:49.114Z,30.34
2017-07-05T17:55:49.075Z,30.28
2017-07-05T17:56:49.352Z,30.25
2017-07-05T17:57:48.793Z,30.25
2017-07-05T17:58:49.136Z,30.13
2017-07-05T17:59:48.769Z,30.18
2017-07-05T18:00:49.918Z,30.1
2017-07-05T18:01:48.927Z,29.98
2017-07-05T18:02:48.375Z,30.06
2017-07-05T18:03:48.947Z,29.97
2017-07-05T18:04:48.834Z,30
2017-07-05T18:05:48.409Z,30.02
2017-07-05T18:06:48.492Z,30
2017-07-05T18:07:48.197Z,29.98
2017-07-05T18:08:48.927Z,30.02
2017-07-05T18:09:48.107Z,30.03
2017-07-05T18:10:48.198Z,30
2017-07-05T18:11:48.832Z,30.05
2017-07-05T18:12:48.475Z,30.02
2017-07-05T18:13:48.079Z,29.97
2017-07-05T18:15:14.000Z,30.03
2017-07-05T18:15:50.043Z,29.93
2017-07-05T18:16:48.596Z,29.88
2017-07-05T18:17:48.534Z,29.97
2017-07-05T18:18:48.338Z,29.87
2017-07-05T18:19:48.029Z,29.81
2017-07-05T18:20:48.351Z,29.84
2017-07-05T18:21:48.364Z,29.87
2017-07-05T18:22:48.356Z,29.87
2017-07-05T18:23:48.366Z,29.81
2017-07-05T18:24:48.368Z,29.71
2017-07-05T18:25:48.057Z,29.66
2017-07-05T18:26:48.059Z,29.72
2017-07-05T18:27:48.389Z,29.72
2017-07-05T18:28:48.713Z,29.73
2017-07-05T18:29:48.399Z,29.66
2017-07-05T18:30:48.106Z,29.65
2017-07-05T18:31:48.105Z,29.49
2017-07-05T18:32:48.824Z,29.49
2017-07-05T18:33:48.750Z,29.49
2017-07-05T18:34:48.757Z,29.41
2017-07-05T18:35:48.761Z,29.41
2017-07-05T18:36:48.483Z,29.39
2017-07-05T18:37:48.788Z,29.38
2017-07-05T18:38:48.480Z,29.34
2017-07-05T18:39:48.802Z,29.31
2017-07-05T18:40:48.398Z,29.38
2017-07-05T18:41:49.003Z,29.27
2017-07-05T18:42:48.240Z,29.2
2017-07-05T18:43:48.515Z,29.14
2017-07-05T18:44:48.505Z,29.19
2017-07-05T18:45:48.871Z,29.1
2017-07-05T18:46:48.519Z,29.07
2017-07-05T18:47:48.540Z,29.01
2017-07-05T18:48:48.530Z,28.98
2017-07-05T18:49:48.856Z,28.96
2017-07-05T18:50:48.541Z,28.89
2017-07-05T18:51:48.864Z,28.81
2017-07-05T18:52:48.557Z,28.88
2017-07-05T18:53:48.262Z,28.75
2017-07-05T18:54:48.400Z,28.72
2017-07-05T18:55:48.256Z,28.74
2017-07-05T18:56:48.963Z,28.72
2017-07-05T18:57:48.579Z,28.59
2017-07-05T18:58:48.967Z,28.49
2017-07-05T18:59:48.924Z,28.44
2017-07-05T19:00:48.598Z,28.54
2017-07-05T19:01:48.706Z,28.37
2017-07-05T19:02:48.614Z,28.41
2017-07-05T19:03:48.620Z,28.37
2017-07-05T19:04:48.949Z,28.27
2017-07-05T19:05:48.953Z,28.3
2017-07-05T19:06:48.316Z,28.23
2017-07-05T19:07:48.654Z,28.17
2017-07-05T19:08:48.714Z,28.22
2017-07-05T19:09:48.658Z,28.2
2017-07-05T19:10:48.671Z,28.14
2017-07-05T19:11:48.710Z,28.04
2017-07-05T19:12:48.677Z,28.05
2017-07-05T19:13:49.002Z,28.04
2017-07-05T19:14:48.688Z,28.07
2017-07-05T19:15:49.010Z,27.93
2017-07-05T19:16:50.810Z,27.86
2017-07-05T19:17:48.699Z,27.9
2017-07-05T19:18:48.773Z,27.87
2017-07-05T19:19:48.715Z,27.9
2017-07-05T19:20:48.724Z,27.82
2017-07-05T19:21:48.726Z,27.73
2017-07-05T19:22:49.053Z,27.73
2017-07-05T19:23:48.748Z,27.64
2017-07-05T19:24:49.074Z,27.55
2017-07-05T19:25:48.440Z,27.63
2017-07-05T19:26:49.096Z,27.55
2017-07-05T19:27:48.932Z,27.39
2017-07-05T19:28:48.811Z,27.45
2017-07-05T19:29:49.106Z,27.33
2017-07-05T19:30:49.106Z,27.3
2017-07-05T19:31:49.214Z,27.21
2017-07-05T19:32:48.847Z,27.18
2017-07-05T19:33:49.121Z,27.07
2017-07-05T19:34:48.902Z,27.07
2017-07-05T19:35:49.259Z,27
2017-07-05T19:36:48.815Z,27
2017-07-05T19:37:49.145Z,26.95
2017-07-05T19:38:48.513Z,26.95
2017-07-05T19:39:49.158Z,26.83
2017-07-05T19:40:48.860Z,26.84
2017-07-05T19:41:49.233Z,26.74
2017-07-05T19:42:49.177Z,26.66
2017-07-05T19:43:48.859Z,26.62
2017-07-05T19:44:49.205Z,26.7
2017-07-05T19:45:48.872Z,26.62
2017-07-05T19:46:56.019Z,26.55
2017-07-05T19:47:48.788Z,26.53
2017-07-05T19:48:48.568Z,26.48
2017-07-05T19:49:48.576Z,26.47
2017-07-05T19:50:49.223Z,26.38
2017-07-05T19:51:48.902Z,26.37
2017-07-05T19:52:48.914Z,26.26
2017-07-05T19:53:48.907Z,26.23
2017-07-05T19:54:48.614Z,26.28
2017-07-05T19:55:48.923Z,26.16
2017-07-05T19:56:48.940Z,26.18
2017-07-05T19:57:49.258Z,26.21
2017-07-05T19:58:49.285Z,26.13
2017-07-05T19:59:48.626Z,26.05
2017-07-05T20:00:49.070Z,26.03
2017-07-05T20:01:49.343Z,26.02
2017-07-05T20:02:49.282Z,26.03
2017-07-05T20:03:49.283Z,26.06
2017-07-05T20:04:49.291Z,25.98
2017-07-05T20:05:48.980Z,25.95
2017-07-05T20:06:49.313Z,25.96
2017-07-05T20:07:48.669Z,25.83
2017-07-05T20:08:48.994Z,25.83
2017-07-05T20:09:48.675Z,25.78
2017-07-05T20:10:49.001Z,25.73
2017-07-05T20:11:49.337Z,25.65
2017-07-05T20:12:49.016Z,25.66
2017-07-05T20:13:49.043Z,25.6
2017-07-05T20:14:49.357Z,25.66
2017-07-05T20:15:48.704Z,25.55
2017-07-05T20:16:49.038Z,25.54
2017-07-05T20:17:52.289Z,25.46
2017-07-05T20:18:49.043Z,25.51
2017-07-05T20:19:48.731Z,25.4
2017-07-05T20:20:49.471Z,25.44
2017-07-05T20:21:49.065Z,25.47
2017-07-05T20:22:49.076Z,25.48
2017-07-05T20:23:48.745Z,25.48
2017-07-05T20:24:49.424Z,25.35
2017-07-05T20:25:49.409Z,25.43
2017-07-05T20:26:49.081Z,25.31
2017-07-05T20:27:49.416Z,25.29
2017-07-05T20:28:49.203Z,25.26
2017-07-05T20:29:49.427Z,25.25
2017-07-05T20:30:49.127Z,25.23
2017-07-05T20:31:49.574Z,25.13
2017-07-05T20:32:49.547Z,25.06
2017-07-05T20:33:49.328Z,25.03
2017-07-05T20:34:49.444Z,24.91
2017-07-05T20:35:49.461Z,24.81
2017-07-05T20:36:49.146Z,24.92
2017-07-05T20:37:49.468Z,24.92
2017-07-05T20:38:49.724Z,24.86
2017-07-05T20:39:49.148Z,24.85
2017-07-05T20:40:49.152Z,24.86
2017-07-05T20:41:49.483Z,24.8
2017-07-05T20:42:49.525Z,24.76
2017-07-05T20:43:50.111Z,24.69
2017-07-05T20:44:49.751Z,24.66
